createdAt,value
2022-11-24T00:00:10.284Z,110.75
2022-11-24T00:02:38.960Z,118.43
2022-11-24T00:05:08.815Z,104.90
2022-11-24T00:07:37.197Z,110.28
2022-11-24T00:10:06.122Z,122.63
2022-11-24T00:12:34.435Z,105.00
2022-11-24T00:15:04.211Z,117.15
2022-11-24T00:17:33.270Z,107.13
2022-11-24T00:20:01.594Z,115.43
2022-11-24T00:22:29.967Z,113.43
2022-11-24T00:24:58.262Z,113.47
2022-11-24T00:27:26.577Z,106.20
2022-11-24T00:29:54.893Z,112.38
2022-11-24T00:32:24.592Z,110.47
2022-11-24T00:34:52.911Z,114.85
2022-11-24T00:37:21.225Z,108.05
2022-11-24T00:39:49.593Z,123.60
2022-11-24T00:42:18.558Z,119.10
2022-11-24T00:44:46.918Z,113.65
2022-11-24T00:47:15.324Z,114.97
2022-11-24T00:49:45.251Z,108.15
2022-11-24T00:52:13.553Z,117.75
2022-11-24T00:54:41.869Z,109.05
2022-11-24T00:57:10.342Z,118.85
2022-11-24T00:59:39.594Z,112.85
2022-11-24T01:02:07.982Z,111.70
2022-11-24T01:04:36.915Z,119.30
2022-11-24T01:07:06.759Z,114.85
2022-11-24T01:09:35.437Z,109.60
2022-11-24T01:12:04.274Z,115.15
2022-11-24T01:14:34.023Z,112.22
2022-11-24T01:17:02.537Z,116.25
2022-11-24T01:19:31.067Z,111.88
2022-11-24T01:21:59.399Z,105.22
2022-11-24T01:24:29.146Z,117.28
2022-11-24T01:26:57.469Z,110.88
2022-11-24T01:29:25.910Z,113.35
2022-11-24T01:31:54.242Z,106.55
2022-11-24T01:34:22.853Z,112.75
2022-11-24T01:36:51.259Z,103.47
2022-11-24T01:39:19.598Z,110.60
2022-11-24T01:41:49.301Z,110.03
2022-11-24T01:44:22.473Z,112.72
2022-11-24T01:46:54.295Z,100.05
2022-11-24T01:49:26.902Z,117.10
2022-11-24T01:51:59.738Z,98.10
2022-11-24T01:54:31.814Z,105.78
2022-11-24T01:57:06.804Z,102.32
2022-11-24T01:59:35.125Z,109.40
2022-11-24T02:02:03.724Z,111.10
2022-11-24T02:04:35.099Z,99.95
2022-11-24T02:07:07.064Z,102.35
2022-11-24T02:09:41.806Z,102.38
2022-11-24T02:14:42.923Z,128.20
2022-11-24T02:17:11.313Z,120.07
2022-11-24T02:19:50.166Z,110.38
2022-11-24T02:22:26.024Z,107.50
2022-11-24T02:25:04.306Z,107.25
2022-11-24T02:27:34.110Z,111.18
2022-11-24T02:30:02.633Z,106.00
2022-11-24T02:32:34.001Z,115.72
2022-11-24T02:35:03.041Z,112.93
2022-11-24T02:37:31.504Z,122.72
2022-11-24T02:39:59.931Z,113.05
2022-11-24T02:42:32.397Z,96.13
2022-11-24T02:45:02.580Z,102.28
2022-11-24T02:47:30.952Z,98.95
2022-11-24T02:49:59.285Z,105.05
2022-11-24T02:52:27.601Z,101.28
2022-11-24T02:54:55.918Z,105.85
2022-11-24T02:57:24.391Z,117.85
2022-11-24T02:59:52.857Z,123.13
2022-11-24T03:02:22.640Z,104.35
2022-11-24T03:04:51.232Z,91.25
2022-11-24T03:07:19.679Z,100.50
2022-11-24T03:09:48.040Z,101.45
2022-11-24T03:12:16.409Z,100.50
2022-11-24T03:14:44.780Z,107.97
2022-11-24T03:17:13.065Z,99.03
2022-11-24T03:19:42.755Z,90.03
2022-11-24T03:22:11.098Z,92.55
2022-11-24T03:24:44.640Z,100.28
2022-11-24T03:27:13.234Z,101.22
2022-11-24T03:29:41.793Z,93.82
2022-11-24T03:32:10.285Z,91.78
2022-11-24T03:34:38.568Z,102.65
2022-11-24T03:37:08.615Z,101.28
2022-11-24T03:39:36.913Z,96.80
2022-11-24T03:42:05.632Z,91.05
2022-11-24T03:44:34.137Z,97.50
2022-11-24T03:47:02.658Z,101.13
2022-11-24T03:49:31.103Z,87.43
2022-11-24T03:52:02.679Z,112.57
2022-11-24T03:54:36.423Z,105.22
2022-11-24T03:57:04.917Z,93.68
2022-11-24T03:59:33.299Z,99.63
2022-11-24T04:02:01.713Z,85.75
2022-11-24T04:04:30.217Z,88.70
2022-11-24T04:06:58.554Z,92.63
2022-11-24T04:09:26.917Z,91.63
2022-11-24T04:12:14.114Z,97.28
2022-11-24T04:14:42.414Z,90.72
2022-11-24T04:17:10.749Z,89.03
2022-11-24T04:19:39.053Z,98.05
2022-11-24T04:22:07.406Z,85.10
2022-11-24T04:24:36.015Z,86.65
2022-11-24T04:27:05.859Z,106.20
2022-11-24T04:29:34.246Z,92.18
2022-11-24T04:32:02.576Z,88.40
2022-11-24T04:34:31.282Z,98.05
2022-11-24T04:36:59.797Z,90.15
2022-11-24T04:39:28.593Z,86.38
2022-11-24T04:41:57.444Z,87.68
2022-11-24T04:44:27.156Z,91.00
2022-11-24T04:46:55.629Z,85.82
2022-11-24T04:49:24.069Z,89.90
2022-11-24T04:51:52.413Z,89.00
2022-11-24T04:54:20.704Z,121.38
2022-11-24T04:56:52.147Z,87.05
2022-11-24T04:59:20.990Z,89.60
2022-11-24T05:01:50.732Z,99.32
2022-11-24T05:04:21.342Z,106.13
2022-11-24T05:06:49.791Z,91.47
2022-11-24T05:09:18.532Z,91.85
2022-11-24T05:11:46.854Z,84.90
2022-11-24T05:14:15.194Z,105.38
2022-11-24T05:16:43.499Z,83.38
2022-11-24T05:19:13.348Z,86.82
2022-11-24T05:21:41.997Z,86.90
2022-11-24T05:24:11.516Z,86.47
2022-11-24T05:26:39.829Z,89.93
2022-11-24T05:29:08.138Z,93.50
2022-11-24T05:31:36.513Z,98.05
2022-11-24T05:34:05.354Z,121.03
2022-11-24T05:36:54.932Z,94.68
2022-11-24T05:39:23.359Z,94.18
2022-11-24T05:41:51.816Z,96.47
2022-11-24T05:44:20.216Z,91.32
2022-11-24T05:46:48.654Z,75.85
2022-11-24T05:49:17.015Z,81.45
2022-11-24T05:51:46.656Z,89.68
2022-11-24T05:54:14.994Z,93.88
2022-11-24T05:56:43.322Z,84.07
2022-11-24T05:59:11.730Z,104.68
2022-11-24T06:01:40.216Z,86.65
2022-11-24T06:04:08.612Z,98.85
2022-11-24T06:06:37.398Z,97.00
2022-11-24T06:09:07.106Z,77.30
2022-11-24T06:11:35.802Z,77.10
2022-11-24T06:14:08.292Z,69.82
2022-11-24T06:16:39.626Z,70.20
2022-11-24T06:19:08.114Z,77.32
2022-11-24T06:21:36.542Z,77.70
2022-11-24T06:24:05.359Z,76.80
2022-11-24T06:26:35.036Z,65.72
2022-11-24T06:29:03.468Z,71.28
2022-11-24T06:31:31.802Z,81.07
2022-11-24T06:34:00.732Z,80.20
2022-11-24T06:36:29.169Z,81.03
2022-11-24T06:38:57.502Z,73.57
2022-11-24T06:41:25.839Z,81.07
2022-11-24T06:43:55.535Z,82.57
2022-11-24T06:46:23.961Z,81.80
2022-11-24T06:48:52.758Z,79.93
2022-11-24T06:51:21.280Z,81.18
2022-11-24T06:53:49.645Z,78.80
2022-11-24T06:56:20.635Z,83.15
2022-11-24T06:58:50.807Z,83.65
2022-11-24T07:01:21.993Z,85.53
2022-11-24T07:03:51.310Z,80.47
2022-11-24T07:06:20.844Z,90.82
2022-11-24T07:08:49.496Z,80.50
2022-11-24T07:11:20.653Z,72.75
2022-11-24T07:13:55.100Z,83.40
2022-11-24T07:16:28.712Z,86.63
2022-11-24T07:18:57.556Z,89.03
2022-11-24T07:21:27.005Z,82.82
2022-11-24T07:23:57.089Z,73.15
2022-11-24T07:26:25.760Z,85.13
2022-11-24T07:28:54.136Z,74.38
2022-11-24T07:31:25.063Z,91.20
2022-11-24T07:33:56.492Z,78.20
2022-11-24T07:36:25.545Z,93.30
2022-11-24T07:38:53.842Z,83.60
2022-11-24T07:41:22.202Z,88.30
2022-11-24T07:43:51.691Z,82.20
2022-11-24T07:46:20.858Z,97.60
2022-11-24T07:48:49.518Z,83.32
2022-11-24T07:51:19.496Z,91.43
2022-11-24T07:53:48.093Z,86.80
2022-11-24T07:56:16.449Z,78.30
2022-11-24T07:58:49.677Z,98.18
2022-11-24T08:01:21.391Z,94.53
2022-11-24T08:03:50.028Z,86.43
2022-11-24T08:06:26.175Z,82.25
2022-11-24T08:08:57.721Z,91.75
2022-11-24T08:11:26.720Z,86.93
2022-11-24T08:13:55.211Z,86.80
2022-11-24T08:16:32.552Z,92.78
2022-11-24T08:19:01.105Z,83.82
2022-11-24T08:21:31.005Z,89.72
2022-11-24T08:23:59.525Z,80.03
2022-11-24T08:26:27.811Z,78.55
2022-11-24T08:28:58.219Z,81.75
2022-11-24T08:31:32.991Z,83.57
2022-11-24T08:34:03.534Z,81.78
2022-11-24T08:36:34.382Z,77.43
2022-11-24T08:39:03.474Z,70.88
2022-11-24T08:41:32.288Z,68.60
2022-11-24T08:44:00.620Z,77.38
2022-11-24T08:46:29.061Z,73.13
2022-11-24T08:48:57.471Z,75.03
2022-11-24T08:51:27.560Z,75.47
2022-11-24T08:53:58.902Z,69.85
2022-11-24T08:56:27.678Z,73.97
2022-11-24T08:58:56.496Z,72.40
2022-11-24T09:01:25.420Z,78.30
2022-11-24T09:03:54.080Z,60.35
2022-11-24T09:06:24.918Z,59.35
2022-11-24T09:08:54.553Z,64.35
2022-11-24T09:11:25.844Z,81.20
2022-11-24T09:13:55.022Z,67.55
2022-11-24T09:16:26.006Z,79.15
2022-11-24T09:18:59.200Z,74.85
2022-11-24T09:21:28.321Z,76.70
2022-11-24T09:23:57.069Z,78.45
2022-11-24T09:26:28.579Z,68.65
2022-11-24T09:28:58.039Z,70.47
2022-11-24T09:31:27.988Z,77.05
2022-11-24T09:33:56.710Z,68.95
2022-11-24T09:36:25.594Z,70.82
2022-11-24T09:38:54.183Z,69.05
2022-11-24T09:41:34.539Z,71.93
2022-11-24T09:44:14.836Z,72.10
2022-11-24T09:46:54.168Z,68.63
2022-11-24T09:49:30.787Z,64.72
2022-11-24T09:52:03.394Z,69.68
2022-11-24T09:54:34.053Z,62.58
2022-11-24T09:57:07.793Z,72.40
2022-11-24T09:59:36.740Z,66.97
2022-11-24T10:02:13.178Z,68.10
2022-11-24T10:04:44.059Z,65.20
2022-11-24T10:07:23.226Z,75.30
2022-11-24T10:10:03.226Z,64.82
2022-11-24T10:12:50.596Z,74.55
2022-11-24T10:15:38.934Z,68.13
2022-11-24T10:18:34.849Z,69.97
2022-11-24T10:21:30.961Z,62.40
2022-11-24T10:24:13.849Z,64.45
2022-11-24T10:26:52.313Z,65.93
2022-11-24T10:29:29.890Z,60.53
2022-11-24T10:31:58.868Z,60.20
2022-11-24T10:34:33.885Z,54.17
2022-11-24T10:37:08.273Z,60.33
2022-11-24T10:42:12.340Z,57.08
2022-11-24T10:47:20.189Z,50.78
2022-11-24T10:49:56.543Z,58.30
2022-11-24T10:52:26.006Z,50.17
2022-11-24T10:54:59.369Z,52.72
2022-11-24T10:57:33.497Z,59.47
2022-11-24T11:00:05.954Z,60.15
2022-11-24T11:02:37.686Z,51.95
2022-11-24T11:05:38.118Z,71.80
2022-11-24T11:08:19.743Z,55.10
2022-11-24T11:10:50.654Z,51.33
2022-11-24T11:13:24.506Z,48.67
2022-11-24T11:15:54.504Z,51.83
2022-11-24T11:18:26.472Z,48.22
2022-11-24T11:20:56.459Z,47.33
2022-11-24T11:23:28.857Z,49.30
2022-11-24T11:26:30.975Z,47.65
2022-11-24T11:35:07.559Z,57.35
2022-11-24T11:37:36.510Z,49.08
2022-11-24T11:40:15.927Z,58.03
2022-11-24T11:43:04.525Z,48.38
2022-11-24T11:45:36.724Z,47.10
2022-11-24T11:48:23.204Z,56.92
2022-11-24T11:53:49.930Z,62.80
2022-11-24T11:56:25.330Z,53.88
2022-11-24T11:59:31.806Z,53.75
2022-11-24T12:02:42.076Z,48.80
2022-11-24T12:05:19.973Z,51.45
2022-11-24T12:08:09.723Z,69.05
2022-11-24T12:10:46.101Z,47.15
2022-11-24T12:13:47.034Z,51.67
2022-11-24T12:16:30.879Z,54.30
2022-11-24T12:19:13.626Z,45.40
2022-11-24T12:21:50.044Z,53.00
2022-11-24T12:24:23.277Z,48.88
2022-11-24T12:26:56.638Z,60.75
2022-11-24T12:30:00.612Z,49.63
2022-11-24T12:33:00.820Z,49.15
2022-11-24T12:35:36.732Z,51.70
2022-11-24T12:38:19.581Z,52.08
2022-11-24T12:41:39.689Z,51.70
2022-11-24T12:44:01.699Z,49.92
2022-11-24T12:46:43.002Z,49.85
2022-11-24T12:49:21.575Z,49.67
2022-11-24T12:51:56.696Z,43.60
2022-11-24T12:54:32.833Z,53.85
2022-11-24T12:57:09.641Z,48.15
2022-11-24T12:59:45.356Z,46.00
2022-11-24T13:02:23.564Z,44.50
2022-11-24T13:04:59.699Z,44.47
2022-11-24T13:07:40.739Z,47.85
2022-11-24T13:10:55.732Z,49.13
2022-11-24T13:13:20.710Z,48.65
2022-11-24T13:19:10.082Z,48.80
2022-11-24T13:21:51.959Z,64.65
2022-11-24T13:24:30.710Z,67.65
2022-11-24T13:27:29.945Z,60.50
2022-11-24T13:29:58.507Z,56.83
2022-11-24T13:33:01.044Z,83.85
2022-11-24T13:35:30.080Z,54.63
2022-11-24T13:37:58.490Z,53.28
2022-11-24T13:40:59.897Z,50.95
2022-11-24T13:43:34.056Z,49.15
2022-11-24T13:46:03.758Z,53.55
2022-11-24T13:48:53.463Z,48.28
2022-11-24T13:51:25.619Z,49.40
2022-11-24T13:53:56.808Z,48.58
2022-11-24T13:56:28.084Z,50.25
2022-11-24T13:59:00.852Z,54.72
2022-11-24T14:01:31.409Z,48.33
2022-11-24T14:07:06.737Z,55.78
2022-11-24T14:09:41.733Z,50.38
2022-11-24T14:12:16.140Z,54.53
2022-11-24T14:14:47.665Z,49.22
2022-11-24T14:17:22.936Z,48.75
2022-11-24T14:19:53.414Z,55.90
2022-11-24T14:22:24.367Z,53.88
2022-11-24T14:24:55.240Z,54.30
2022-11-24T14:27:30.375Z,52.50
2022-11-24T14:30:02.024Z,54.90
2022-11-24T14:32:30.607Z,59.45
2022-11-24T14:34:58.998Z,53.50
2022-11-24T14:37:27.490Z,54.70
2022-11-24T14:39:56.042Z,52.47
2022-11-24T14:42:27.140Z,56.47
2022-11-24T14:44:58.657Z,95.05
2022-11-24T14:47:31.989Z,58.28
2022-11-24T14:50:10.656Z,53.47
2022-11-24T14:52:45.918Z,49.45
2022-11-24T14:55:28.585Z,51.67
2022-11-24T14:57:57.641Z,53.45
2022-11-24T15:00:31.010Z,56.58
2022-11-24T15:03:18.680Z,57.27
2022-11-24T15:05:58.585Z,55.15
2022-11-24T15:08:28.922Z,52.20
2022-11-24T15:11:00.341Z,54.50
2022-11-24T15:13:30.231Z,57.67
2022-11-24T15:16:03.264Z,55.25
2022-11-24T15:18:40.514Z,66.60
2022-11-24T15:21:12.850Z,55.15
2022-11-24T15:23:45.704Z,55.50
2022-11-24T15:26:36.912Z,55.63
2022-11-24T15:29:08.555Z,58.72
2022-11-24T15:31:37.701Z,52.88
2022-11-24T15:34:08.094Z,63.20
2022-11-24T15:36:36.513Z,54.72
2022-11-24T15:39:04.913Z,56.10
2022-11-24T15:41:34.689Z,56.08
2022-11-24T15:44:03.165Z,56.50
2022-11-24T15:46:37.798Z,55.40
2022-11-24T15:49:08.355Z,59.70
2022-11-24T15:51:45.575Z,57.72
2022-11-24T15:54:17.132Z,57.58
2022-11-24T15:56:45.694Z,65.97
2022-11-24T15:59:20.253Z,68.60
2022-11-24T16:01:49.845Z,59.08
2022-11-24T16:04:20.101Z,61.70
2022-11-24T16:06:48.481Z,58.83
2022-11-24T16:09:17.822Z,67.53
2022-11-24T16:11:46.230Z,69.45
2022-11-24T16:14:14.739Z,62.35
2022-11-24T16:16:43.291Z,63.25
2022-11-24T16:19:12.269Z,58.05
2022-11-24T16:21:42.028Z,63.80
2022-11-24T16:24:10.631Z,69.28
2022-11-24T16:26:39.002Z,68.25
2022-11-24T16:29:07.582Z,60.42
2022-11-24T16:31:36.160Z,61.58
2022-11-24T16:34:04.648Z,63.75
2022-11-24T16:36:33.012Z,64.38
2022-11-24T16:39:02.916Z,67.03
2022-11-24T16:41:31.462Z,66.38
2022-11-24T16:43:59.821Z,73.28
2022-11-24T16:46:28.323Z,71.53
2022-11-24T16:49:00.959Z,63.30
2022-11-24T16:51:34.414Z,75.60
2022-11-24T16:54:05.069Z,73.47
2022-11-24T16:56:33.718Z,67.68
2022-11-24T16:59:02.291Z,62.97
2022-11-24T17:01:32.885Z,65.85
2022-11-24T17:04:01.714Z,66.53
2022-11-24T17:06:30.230Z,68.38
2022-11-24T17:08:58.689Z,66.07
2022-11-24T17:11:29.861Z,65.35
2022-11-24T17:13:58.717Z,79.82
2022-11-24T17:16:28.318Z,72.32
2022-11-24T17:18:58.633Z,72.68
2022-11-24T17:21:28.270Z,65.70
2022-11-24T17:23:57.517Z,69.30
2022-11-24T17:26:26.465Z,64.68
2022-11-24T17:28:56.536Z,68.60
2022-11-24T17:31:28.258Z,71.55
2022-11-24T17:33:58.515Z,65.57
2022-11-24T17:36:27.708Z,67.40
2022-11-24T17:38:56.090Z,70.43
2022-11-24T17:41:24.562Z,67.78
2022-11-24T17:43:55.481Z,68.38
2022-11-24T17:46:26.513Z,75.13
2022-11-24T17:48:55.325Z,66.35
2022-11-24T17:51:25.631Z,75.82
2022-11-24T17:53:56.092Z,63.72
2022-11-24T17:56:27.055Z,69.38
2022-11-24T17:58:56.533Z,64.13
2022-11-24T18:01:28.588Z,71.55
2022-11-24T18:03:57.236Z,68.80
2022-11-24T18:06:26.091Z,69.85
2022-11-24T18:08:55.096Z,79.70
2022-11-24T18:11:30.556Z,67.88
2022-11-24T18:14:02.191Z,69.82
2022-11-24T18:16:34.141Z,72.50
2022-11-24T18:19:09.928Z,70.38
2022-11-24T18:21:39.504Z,67.38
2022-11-24T18:24:08.478Z,72.40
2022-11-24T18:26:37.227Z,68.43
2022-11-24T18:29:08.517Z,71.72
2022-11-24T18:31:39.763Z,71.15
2022-11-24T18:34:08.705Z,64.38
2022-11-24T18:36:37.541Z,67.00
2022-11-24T18:39:07.729Z,72.32
2022-11-24T18:41:36.639Z,71.50
2022-11-24T18:44:08.480Z,72.88
2022-11-24T18:46:37.422Z,76.40
2022-11-24T18:49:07.625Z,78.63
2022-11-24T18:51:36.047Z,83.95
2022-11-24T18:54:05.317Z,66.93
2022-11-24T18:56:34.025Z,70.07
2022-11-24T18:59:02.395Z,68.97
2022-11-24T19:01:31.158Z,75.75
2022-11-24T19:04:02.007Z,77.22
2022-11-24T19:06:34.862Z,69.68
2022-11-24T19:09:06.709Z,69.00
2022-11-24T19:11:38.044Z,69.88
2022-11-24T19:14:10.145Z,74.45
2022-11-24T19:16:41.366Z,62.75
2022-11-24T19:19:11.671Z,71.32
2022-11-24T19:21:44.397Z,68.85
2022-11-24T19:24:14.363Z,64.95
2022-11-24T19:26:42.759Z,67.60
2022-11-24T19:29:11.131Z,63.88
2022-11-24T19:31:40.335Z,71.25
2022-11-24T19:34:08.977Z,143.90
2022-11-24T19:36:43.179Z,71.18
2022-11-24T19:39:18.255Z,60.47
2022-11-24T19:41:47.022Z,68.88
2022-11-24T19:44:15.669Z,63.03
2022-11-24T19:46:44.064Z,65.85
2022-11-24T19:49:12.555Z,63.55
2022-11-24T19:51:42.289Z,61.83
2022-11-24T19:54:12.785Z,59.38
2022-11-24T19:56:43.765Z,70.00
2022-11-24T19:59:17.845Z,66.28
2022-11-24T20:01:49.385Z,69.60
2022-11-24T20:04:18.423Z,81.55
2022-11-24T20:06:49.455Z,79.47
2022-11-24T20:09:19.407Z,67.72
2022-11-24T20:11:48.596Z,67.88
2022-11-24T20:14:19.116Z,64.60
2022-11-24T20:16:47.841Z,68.57
2022-11-24T20:19:17.922Z,64.32
2022-11-24T20:21:49.908Z,92.97
2022-11-24T20:24:20.384Z,74.75
2022-11-24T20:26:52.087Z,73.13
2022-11-24T20:29:20.900Z,70.75
2022-11-24T20:31:51.153Z,64.20
2022-11-24T20:34:20.273Z,65.38
2022-11-24T20:36:50.402Z,65.68
2022-11-24T20:39:20.562Z,67.32
2022-11-24T20:41:49.854Z,64.82
2022-11-24T20:44:21.303Z,65.97
2022-11-24T20:46:50.586Z,67.05
2022-11-24T20:49:21.840Z,63.10
2022-11-24T20:51:54.466Z,65.10
2022-11-24T20:54:23.417Z,64.63
2022-11-24T20:56:51.870Z,64.30
2022-11-24T20:59:22.709Z,75.00
2022-11-24T21:01:55.096Z,73.43
2022-11-24T21:04:26.373Z,78.28
2022-11-24T21:06:56.347Z,68.82
2022-11-24T21:09:27.143Z,76.40
2022-11-24T21:11:55.734Z,71.82
2022-11-24T21:14:24.810Z,111.38
2022-11-24T21:16:53.188Z,83.50
2022-11-24T21:19:21.556Z,89.45
2022-11-24T21:21:50.183Z,76.85
2022-11-24T21:24:21.462Z,77.55
2022-11-24T21:26:52.810Z,91.47
2022-11-24T21:29:23.462Z,94.60
2022-11-24T21:31:52.687Z,86.53
2022-11-24T21:34:21.274Z,82.43
2022-11-24T21:36:49.666Z,83.82
2022-11-24T21:39:19.445Z,104.25
2022-11-24T21:41:48.084Z,97.53
2022-11-24T21:44:16.617Z,97.40
2022-11-24T21:46:51.095Z,95.53
2022-11-24T21:49:22.658Z,88.82
2022-11-24T21:51:55.952Z,87.10
2022-11-24T21:54:25.772Z,88.72
2022-11-24T21:56:55.425Z,85.15
2022-11-24T21:59:23.933Z,86.72
2022-11-24T22:01:52.289Z,84.85
2022-11-24T22:04:20.854Z,89.40
2022-11-24T22:06:49.236Z,84.43
2022-11-24T22:09:18.387Z,88.43
2022-11-24T22:11:49.280Z,85.07
2022-11-24T22:14:17.819Z,85.50
2022-11-24T22:16:46.247Z,87.35
2022-11-24T22:19:14.657Z,77.80
2022-11-24T22:21:43.134Z,75.90
2022-11-24T22:24:11.871Z,81.35
2022-11-24T22:26:40.228Z,87.88
2022-11-24T22:29:09.988Z,75.68
2022-11-24T22:31:38.401Z,78.55
2022-11-24T22:34:06.974Z,77.55
2022-11-24T22:36:36.640Z,75.55
2022-11-24T22:39:06.977Z,96.05
2022-11-24T22:41:36.855Z,78.30
2022-11-24T22:44:05.998Z,83.30
2022-11-24T22:46:35.685Z,88.30
2022-11-24T22:49:04.061Z,85.47
2022-11-24T22:51:33.966Z,75.97
2022-11-24T22:54:04.090Z,78.72
2022-11-24T22:56:33.272Z,79.53
2022-11-24T22:59:02.490Z,82.57
2022-11-24T23:01:32.158Z,87.78
2022-11-24T23:04:03.638Z,76.30
2022-11-24T23:06:33.649Z,84.57
2022-11-24T23:09:03.396Z,73.80
2022-11-24T23:11:37.650Z,73.60
2022-11-24T23:14:08.006Z,67.30
2022-11-24T23:16:36.484Z,74.82
2022-11-24T23:19:06.569Z,72.25
2022-11-24T23:21:38.237Z,115.50
2022-11-24T23:24:08.062Z,68.93
2022-11-24T23:26:38.209Z,66.15
2022-11-24T23:29:07.347Z,64.90
2022-11-24T23:31:36.372Z,67.55
2022-11-24T23:34:06.872Z,67.65
2022-11-24T23:36:35.190Z,69.53
2022-11-24T23:39:04.513Z,67.40
2022-11-24T23:41:33.238Z,65.85
2022-11-24T23:44:01.665Z,65.75
2022-11-24T23:46:30.104Z,70.97
2022-11-24T23:48:58.680Z,65.25
2022-11-24T23:51:30.458Z,68.93
2022-11-24T23:54:00.136Z,66.18
2022-11-24T23:56:32.228Z,75.40
2022-11-24T23:59:00.688Z,70.47
